Data for 07/31/2005

Time Sea-Level Adjusted Pressure Absolute Pressure Temperature Relative Humidity Dew Point   
(mb) (inHg) (mb) (inHg) (C) (F) (%) (C) (F)
00:05 1024 30.24 853 25.19 19.8 67.6 35 4.1 39.3
00:10 1023 30.21 853 25.19 20 68 35 4.2 39.5
00:15 1023 30.21 853 25.19 20.1 68.2 33 3.7 38.7
00:20 1024 30.24 853 25.19 20.3 68.5 33 3.5 38.3
00:25 1024 30.24 853 25.19 20.5 68.9 33 3.9 39
00:30 1024 30.24 853 25.19 20.7 69.3 31 3.3 38
00:35 1024 30.24 853 25.19 20.6 69.1 32 3.4 38.1
00:40 1024 30.24 853 25.19 20.7 69.2 32 3.6 38.5
00:45 1024 30.24 853 25.19 20.8 69.4 32 3.8 38.8
00:50 1024 30.24 853 25.19 20.4 68.8 34 4.2 39.6
00:55 1024 30.24 853 25.19 20.2 68.3 34 3.9 39
01:00 1024 30.24 853 25.19 20.1 68.1 37 5 41
01:05 1024 30.24 853 25.19 19.8 67.6 36 4.6 40.3
01:10 1024 30.24 853 25.19 19.9 67.8 36 4.7 40.4
01:15 1024 30.24 853 25.19 20.3 68.5 36 4.9 40.8
01:20 1024 30.24 853 25.19 20 68 37 5.2 41.4
01:25 1024 30.24 853 25.19 19.7 67.5 38 5 41.1
01:30 1024 30.24 853 25.19 19.7 67.4 36 4.5 40.1
01:35 1024 30.24 853 25.19 19.6 67.2 39 5.3 41.5
01:40 1024 30.24 853 25.19 19.3 66.7 39 5.2 41.3
01:45 1024 30.24 853 25.19 19.3 66.7 39 5.2 41.4
01:50 1024 30.24 853 25.19 19.4 67 41 5.8 42.5
01:55 1024 30.24 853 25.19 19.1 66.3 41 5.7 42.3
02:00 1024 30.24 853 25.19 18.8 65.8 42 5.6 42.1
02:05 1024 30.24 853 25.19 19.1 66.3 41 5.5 41.9
02:10 1023 30.21 853 25.19 19 66.2 43 6.2 43.2
02:15 1023 30.21 853 25.19 18.7 65.7 42 5.8 42.5
02:20 1023 30.21 853 25.19 18.9 65.9 43 6 42.9
02:25 1023 30.21 853 25.19 18.8 65.8 43 6.2 43.2
02:30 1023 30.21 853 25.19 18.9 66.1 41 5.7 42.2
02:35 1023 30.21 853 25.19 19.1 66.3 41 5.8 42.4
02:40 1023 30.21 853 25.19 19.1 66.4 42 5.9 42.7
02:45 1023 30.21 853 25.19 19.2 66.5 43 6.4 43.4
02:50 1024 30.24 853 25.19 19.4 66.8 40 5.4 41.7
02:55 1023 30.21 853 25.19 19.8 67.7 38 5.3 41.5
03:00 1023 30.21 853 25.19 19.9 67.9 39 5.8 42.5
03:05 1023 30.21 853 25.19 19.5 67.2 45 7.6 45.6
03:10 1023 30.21 853 25.19 18.5 65.2 49 7.7 45.9
03:15 1023 30.21 853 25.19 17.6 63.6 47 6.4 43.5
03:20 1023 30.21 853 25.19 18 64.4 47 6.7 44
03:25 1023 30.21 853 25.19 17.8 64 47 6.6 43.9
03:30 1023 30.21 853 25.19 17.7 63.8 48 6.7 44.1
03:35 1023 30.21 853 25.19 18.2 64.7 45 6.2 43.2
03:40 1023 30.21 853 25.19 17.9 64.1 48 6.9 44.5
03:45 1023 30.21 853 25.19 17.7 63.8 48 6.7 44.1
03:50 1023 30.21 853 25.19 18.2 64.7 47 6.7 44
03:55 1023 30.21 853 25.19 18.1 64.5 47 6.8 44.3
04:00 1023 30.21 853 25.19 18.2 64.7 47 6.9 44.4
04:05 1023 30.21 853 25.19 18.3 64.9 48 7.1 44.7
04:10 1023 30.21 853 25.19 18 64.4 49 7.4 45.2
04:15 1023 30.21 853 25.19 17.7 63.8 49 7 44.6
04:20 1023 30.21 853 25.19 17.7 63.8 51 7.4 45.4
04:25 1023 30.21 853 25.19 17.6 63.7 50 7.1 44.8
04:30 1023 30.21 853 25.19 17.5 63.5 50 7.2 45
04:35 1023 30.21 853 25.19 17.5 63.5 50 7.2 45
04:40 1023 30.21 853 25.19 17.6 63.7 50 7.2 45
04:45 1023 30.21 853 25.19 17.7 63.9 50 7.4 45.2
04:50 1024 30.24 853 25.19 17.6 63.7 50 7.2 45
04:55 1024 30.24 853 25.19 17.8 64 51 7.7 45.8
05:00 1024 30.24 853 25.19 17.8 64.1 50 7.3 45.2
05:05 1024 30.24 853 25.19 17.9 64.2 49 7.3 45.1
05:10 1024 30.24 853 25.19 18 64.4 48 7.1 44.8
05:15 1024 30.24 853 25.19 18.1 64.6 49 7.3 45.2
05:20 1024 30.24 853 25.19 17.8 64 50 7.4 45.4
05:25 1024 30.24 853 25.19 17.5 63.6 50 7.2 45
05:30 1024 30.24 853 25.19 17.3 63.1 51 7.2 45
05:35 1024 30.24 853 25.19 17.5 63.5 49 6.8 44.2
05:40 1024 30.24 853 25.19 17.5 63.5 53 7.9 46.2
05:45 1024 30.24 853 25.19 16.8 62.3 53 7.4 45.3
05:50 1024 30.24 853 25.19 16.4 61.4 54 7 44.6
05:55 1024 30.24 853 25.19 16.8 62.3 52 6.9 44.4
06:00 1024 30.24 853 25.19 17.1 62.7 52 7.1 44.8
06:05 1024 30.24 853 25.19 17.2 63 52 7.3 45.1
06:10 1024 30.24 853 25.19 17.1 62.8 52 7.4 45.3
06:15 1024 30.24 853 25.19 16.9 62.3 53 7.4 45.3
06:20 1024 30.24 853 25.19 16.6 61.8 54 7.3 45.1
06:25 1024 30.24 853 25.19 17.2 63 49 6.6 43.9
06:30 1024 30.24 853 25.19 17.3 63.2 50 7 44.7
06:35 1024 30.24 853 25.19 17.3 63.2 50 6.9 44.4
06:40 1024 30.24 853 25.19 17.2 62.9 52 7.2 45
06:45 1024 30.24 853 25.19 17.1 62.8 53 7.6 45.7
06:50 1024 30.24 853 25.19 17.1 62.8 53 7.5 45.6
06:55 1024 30.24 853 25.19 17.1 62.7 53 7.6 45.7
07:00 1024 30.24 853 25.19 17 62.7 55 7.9 46.3
07:05 1024 30.24 853 25.19 17.2 62.9 53 7.6 45.7
07:10 1024 30.24 853 25.19 17.3 63.2 54 8 46.3
07:15 1024 30.24 853 25.19 17.5 63.5 51 7.5 45.5
07:20 1024 30.24 853 25.19 17.5 63.5 53 8 46.3
07:25 1024 30.24 853 25.19 17.7 63.8 49 6.9 44.4
07:30 1024 30.24 853 25.19 18.7 65.7 48 7.7 45.8
07:35 1024 30.24 853 25.19 19 66.1 48 7.8 46.1
07:40 1024 30.24 853 25.19 18.4 65.2 51 8.3 46.9
07:45 1024 30.24 853 25.19 18.4 65.1 48 7.5 45.4
07:50 1024 30.24 853 25.19 18.6 65.5 49 7.7 45.8
07:55 1024 30.24 853 25.19 18.8 65.9 49 8.1 46.6
08:00 1024 30.24 853 25.19 19.2 66.5 49 8.4 47.2
08:05 1024 30.24 853 25.19 19.5 67.1 49 8.8 47.8
08:10 1024 30.24 853 25.19 19.8 67.6 51 9.4 48.9
08:15 1024 30.24 853 25.19 20 68.1 50 9.3 48.7
08:20 1024 30.24 853 25.19 20.5 69 49 9.7 49.4
08:25 1024 30.24 853 25.19 20.7 69.2 49 9.8 49.6
08:30 1024 30.24 853 25.19 21 69.9 49 9.9 49.8
08:35 1024 30.24 853 25.19 21.1 69.9 49 10.1 50.2
08:40 1024 30.24 853 25.19 21.4 70.5 47 9.8 49.7
08:45 1024 30.24 853 25.19 21.8 71.2 49 10.6 51.1
08:50 1024 30.24 853 25.19 22.5 72.5 43 9.4 48.9
08:55 1024 30.24 853 25.19 23.1 73.6 40 9.1 48.4
09:00 1024 30.24 853 25.19 23.8 74.8 40 9.4 49
09:05 1024 30.24 853 25.19 23.5 74.3 44 10.7 51.2
09:10 1024 30.24 853 25.19 23.8 74.8 43 10.6 51
09:15 1024 30.24 853 25.19 23.9 75 41 10.2 50.4
09:20 1024 30.24 853 25.19 24.2 75.5 39 9.7 49.5
09:25 1024 30.24 853 25.19 24.8 76.7 37 9.5 49.1
09:30 1024 30.24 853 25.19 25.1 77.1 35 8.9 48.1
09:35 1024 30.24 853 25.19 24.4 75.9 38 9.4 48.9
09:40 1024 30.24 853 25.19 25 77 35 8.9 47.9
09:45 1024 30.24 853 25.19 25 77 38 9.8 49.7
09:50 1024 30.24 853 25.19 24.1 75.5 39 9.5 49.2
09:55 1024 30.24 853 25.19 23.7 74.6 39 9.1 48.5
10:00 1024 30.24 853 25.19 24.5 76.1 37 9.2 48.6
10:05 1024 30.24 853 25.19 24.4 76 37 9.1 48.4
10:10 1024 30.24 853 25.19 25.1 77.3 35 8.8 47.9
10:15 1024 30.24 853 25.19 25.9 78.6 34 9.1 48.4
10:20 1024 30.24 853 25.19 25.6 78 35 9.3 48.8
10:25 1024 30.24 853 25.19 25 77 36 9 48.2
10:30 1024 30.24 853 25.19 25.8 78.5 33 8.5 47.4
10:35 1024 30.24 853 25.19 26.7 80.1 31 8.5 47.2
10:40 1024 30.24 853 25.19 26.9 80.4 32 9.1 48.5
10:45 1024 30.24 853 25.19 26.8 80.2 33 9.2 48.6
10:50 1024 30.24 853 25.19 27.2 81 32 9.2 48.6
10:55 1024 30.24 853 25.19 27.6 81.6 30 8.7 47.7
11:00 1024 30.24 853 25.19 28.3 83 30 9.4 48.8
11:05 1024 30.24 853 25.19 27.8 82 32 9.7 49.5
11:10 1024 30.24 853 25.19 27.7 81.9 31 9.3 48.7
11:15 1024 30.24 853 25.19 27.6 81.6 32 9.5 49.1
11:20 1023 30.21 853 25.19 27.2 80.9 32 9.1 48.4
11:25 1023 30.21 853 25.19 27.9 82.2 30 8.9 48
11:30 1023 30.21 853 25.19 28 82.3 30 9.1 48.4
11:35 1023 30.21 853 25.19 27.7 81.9 30 9 48.2
11:40 1023 30.21 852 25.16 27.6 81.6 29 8.5 47.2
11:45 1023 30.21 852 25.16 27.8 82.1 29 8.5 47.3
11:50 1023 30.21 852 25.16 28.1 82.6 30 9.4 48.9
11:55 1023 30.21 852 25.16 28.2 82.7 28 8.5 47.2
12:00 1023 30.21 852 25.16 28.7 83.6 29 9.4 48.9
12:05 1023 30.21 852 25.16 28.7 83.7 28 8.8 47.8
12:10 1023 30.21 852 25.16 28.9 84.1 28 9 48.2
12:15 1023 30.21 852 25.16 29.6 85.3 27 9.2 48.5
12:20 1023 30.21 852 25.16 30.1 86.1 26 9 48.2
12:25 1023 30.21 852 25.16 30.3 86.5 27 9.4 48.8
12:30 1023 30.21 852 25.16 30.6 87.1 25 8.8 47.9
12:35 1023 30.21 852 25.16 31 87.8 27 10.1 50.2
12:40 1023 30.21 852 25.16 31.1 88 26 9.7 49.5
12:45 1022 30.18 852 25.16 31 87.9 25 9.1 48.4
12:50 1022 30.18 852 25.16 30.9 87.6 24 8.5 47.3
12:55 1022 30.18 851 25.13 30.8 87.4 24 8.2 46.7
13:00 1022 30.18 851 25.13 31 87.8 25 9.2 48.6
13:05 1022 30.18 851 25.13 31.1 88.1 24 8.3 47
13:10 1022 30.18 851 25.13 31.1 87.9 24 8.2 46.7
13:15 1022 30.18 851 25.13 30.7 87.2 24 8.4 47.2
13:20 1022 30.18 851 25.13 30.3 86.6 24 8 46.4
13:25 1022 30.18 851 25.13 30.2 86.4 23 7 44.6
13:30 1022 30.18 851 25.13 30.5 86.8 22 6.9 44.4
13:35 1022 30.18 851 25.13 30.9 87.5 22 6.8 44.3
13:40 1022 30.18 851 25.13 31.2 88.2 22 7.4 45.3
13:45 1022 30.18 851 25.13 30.9 87.5 22 7.1 44.8
13:50 1022 30.18 851 25.13 31 87.8 22 7.4 45.3
13:55 1022 30.18 851 25.13 30.9 87.6 23 7.6 45.7
14:00 1022 30.18 851 25.13 30.4 86.8 25 8.6 47.4
14:05 1022 30.18 851 25.13 30.2 86.3 25 8.1 46.6
14:10 1022 30.18 851 25.13 29.4 85 31 10.6 51.1
14:15 1022 30.18 851 25.13 28.4 83 34 11.1 52
14:20 1022 30.18 851 25.13 27.7 81.9 33 10.1 50.1
14:25 1022 30.18 852 25.16 26.9 80.5 34 10.1 50.1
14:30 1022 30.18 852 25.16 26.2 79.1 39 11.3 52.3
14:35 1023 30.21 852 25.16 25.5 77.9 34 8.8 47.9
14:40 1022 30.18 852 25.16 25.2 77.3 34 8.4 47.2
14:45 1022 30.18 852 25.16 24.7 76.4 34 8.1 46.5
14:50 1022 30.18 852 25.16 24.6 76.2 33 7.4 45.3
14:55 1022 30.18 852 25.16 24.6 76.2 31 6.6 43.9
15:00 1023 30.21 852 25.16 24.9 76.8 33 7.7 45.8
15:05 1023 30.21 852 25.16 24.8 76.6 34 8.1 46.6
15:10 1023 30.21 852 25.16 24.6 76.3 37 9.1 48.3
15:15 1023 30.21 852 25.16 24.2 75.6 34 7.7 45.8
15:20 1023 30.21 852 25.16 24.1 75.4 38 9 48.2
15:25 1022 30.18 852 25.16 24.2 75.6 32 6.6 43.9
15:30 1022 30.18 852 25.16 25.2 77.3 29 6.1 42.9
15:35 1022 30.18 852 25.16 25.6 78.1 31 7.6 45.7
15:40 1022 30.18 852 25.16 25.5 77.9 33 8.4 47.2
15:45 1023 30.21 852 25.16 25.1 77.3 34 8.6 47.5
15:50 1023 30.21 852 25.16 23.6 74.5 40 9.3 48.8
15:55 1023 30.21 852 25.16 22.4 72.4 45 10.1 50.2
16:00 1023 30.21 853 25.19 22.2 72 43 9.3 48.8
16:05 1023 30.21 852 25.16 22.5 72.4 41 8.7 47.7
16:10 1023 30.21 853 25.19 22.8 73.1 41 9.1 48.5
16:15 1023 30.21 853 25.19 22.8 73.1 43 9.9 49.8
16:20 1023 30.21 852 25.16 22.5 72.4 45 10.1 50.1
16:25 1023 30.21 852 25.16 21.8 71.2 50 11.1 51.9
16:30 1023 30.21 852 25.16 21.4 70.5 49 10.4 50.7
16:35 1023 30.21 852 25.16 21.1 70 52 11 51.7
16:40 1023 30.21 852 25.16 20.8 69.4 55 11.6 52.8
16:45 1023 30.21 852 25.16 20.6 69 54 11.2 52.1
16:50 1023 30.21 852 25.16 20.6 69 55 11.4 52.6
16:55 1023 30.21 852 25.16 20.2 68.4 59 12 53.7
17:00 1023 30.21 852 25.16 20.5 68.9 59 12.3 54.1
17:05 1023 30.21 852 25.16 20.7 69.2 57 12 53.6
17:10 1023 30.21 852 25.16 20.8 69.4 56 11.8 53.2
17:15 1023 30.21 852 25.16 21.1 70 55 11.8 53.3
17:20 1023 30.21 852 25.16 21 69.8 55 11.7 53.1
17:25 1023 30.21 852 25.16 21 69.7 56 11.8 53.3
17:30 1023 30.21 852 25.16 20.8 69.5 56 11.9 53.3
17:35 1023 30.21 852 25.16 20.8 69.4 55 11.6 52.9
17:40 1022 30.18 852 25.16 20.7 69.2 60 12.8 55.1
17:45 1022 30.18 852 25.16 20.9 69.7 51 10.4 50.8
17:50 1022 30.18 852 25.16 21.7 71 50 10.9 51.6
17:55 1022 30.18 852 25.16 21.4 70.5 56 12.4 54.3
18:00 1022 30.18 851 25.13 21.3 70.4 53 11.6 52.8
18:05 1022 30.18 851 25.13 21.5 70.8 54 11.9 53.4
18:10 1022 30.18 851 25.13 21.4 70.5 53 11.4 52.6
18:15 1022 30.18 851 25.13 21.6 71 50 10.9 51.6
18:20 1022 30.18 851 25.13 22 71.6 49 11 51.8
18:25 1022 30.18 851 25.13 22.1 71.7 50 11.2 52.2
18:30 1022 30.18 851 25.13 22.3 72.1 46 10.4 50.7
18:35 1022 30.18 851 25.13 22.4 72.3 46 10.3 50.5
18:40 1022 30.18 851 25.13 22.6 72.7 47 10.9 51.7
18:45 1022 30.18 851 25.13 22.7 72.8 47 11.1 51.9
18:50 1022 30.18 851 25.13 22.6 72.7 46 10.7 51.2
18:55 1022 30.18 851 25.13 22.7 72.8 48 11.2 52.1
19:00 1022 30.18 851 25.13 22.8 73.1 46 10.7 51.3
19:05 1022 30.18 851 25.13 22.8 73 49 11.6 52.9
19:10 1022 30.18 851 25.13 22.7 72.9 47 11.1 51.9
19:15 1021 30.15 851 25.13 22.6 72.7 49 11.4 52.5
19:20 1021 30.15 851 25.13 22.5 72.6 49 11.6 52.8
19:25 1021 30.15 851 25.13 22.6 72.7 48 11.3 52.4
19:30 1021 30.15 851 25.13 22.5 72.5 48 11.2 52.2
19:35 1021 30.15 851 25.13 22.5 72.4 48 11.1 52
19:40 1021 30.15 851 25.13 22.4 72.2 50 11.5 52.6
19:45 1021 30.15 851 25.13 22.3 72.2 47 10.7 51.2
19:50 1021 30.15 851 25.13 22.3 72.1 48 10.8 51.4
19:55 1021 30.15 851 25.13 22.3 72.2 46 10.4 50.7
20:00 1021 30.15 851 25.13 22.4 72.4 45 10 50.1
20:05 1022 30.18 851 25.13 22.5 72.6 46 10.6 51
20:10 1022 30.18 851 25.13 22.7 72.8 46 10.8 51.4
20:15 1022 30.18 851 25.13 22.8 73 45 10.5 51
20:20 1022 30.18 851 25.13 22.6 72.7 47 10.9 51.7
20:25 1022 30.18 851 25.13 22.5 72.4 48 11 51.8
20:30 1022 30.18 851 25.13 22.4 72.3 50 11.5 52.7
20:35 1022 30.18 851 25.13 22.2 72 52 12 53.6
20:40 1022 30.18 851 25.13 22 71.7 53 12.1 53.8
20:45 1022 30.18 851 25.13 21.9 71.3 54 12.2 54
20:50 1022 30.18 851 25.13 21.7 71.1 54 12.3 54.1
20:55 1022 30.18 851 25.13 21.6 70.9 56 12.7 54.9
21:00 1022 30.18 851 25.13 21.6 71 56 12.6 54.7
21:05 1022 30.18 851 25.13 21.7 71 56 12.5 54.5
21:10 1022 30.18 851 25.13 21.8 71.2 56 12.7 54.9
21:15 1022 30.18 851 25.13 21.8 71.2 56 12.6 54.8
21:20 1022 30.18 851 25.13 21.8 71.2 55 12.5 54.6
21:25 1022 30.18 851 25.13 21.7 71.1 53 11.8 53.3
21:30 1022 30.18 851 25.13 21.7 71 56 12.7 54.9
21:35 1022 30.18 851 25.13 21.6 70.8 57 12.7 54.9
21:40 1022 30.18 851 25.13 21.1 70 65 14.4 57.9
21:45 1022 30.18 851 25.13 20.5 68.9 64 13.5 56.4
21:50 1022 30.18 851 25.13 20.4 68.7 64 13.4 56.1
21:55 1022 30.18 851 25.13 20.1 68.2 65 13.4 56.1
22:00 1022 30.18 851 25.13 19.8 67.7 66 13.4 56.1
22:05 1022 30.18 851 25.13 19.6 67.2 66 13.2 55.7
22:10 1022 30.18 851 25.13 19.2 66.5 68 13.2 55.8
22:15 1022 30.18 851 25.13 19.1 66.4 68 13.1 55.6
22:20 1022 30.18 851 25.13 18.9 66.1 67 12.7 54.9
22:25 1022 30.18 851 25.13 18.8 65.9 67 12.6 54.6
22:30 1022 30.18 851 25.13 18.8 65.9 66 12.6 54.6
22:35 1022 30.18 851 25.13 18.6 65.5 65 12 53.5
22:40 1022 30.18 851 25.13 18.4 65.1 64 11.6 53
22:45 1022 30.18 851 25.13 18.5 65.2 63 11.4 52.5
22:50 1022 30.18 851 25.13 18.7 65.6 66 12.2 54
22:55 1022 30.18 851 25.13 18.8 65.8 63 11.7 53.1
23:00 1022 30.18 851 25.13 18.5 65.4 64 11.8 53.2
23:05 1022 30.18 851 25.13 18.5 65.3 67 12.3 54.1
23:10 1022 30.18 851 25.13 18.3 65 67 12.3 54.1
23:15 1022 30.18 851 25.13 18 64.4 67 11.9 53.3
23:20 1022 30.18 851 25.13 17.9 64.2 68 12 53.6
23:25 1022 30.18 851 25.13 17.8 64.1 67 11.8 53.2
23:30 1022 30.18 851 25.13 17.2 63 69 11.5 52.7
23:35 1022 30.18 851 25.13 17.2 62.9 67 11 51.8
23:40 1022 30.18 851 25.13 17.2 63 65 10.8 51.4
23:45 1022 30.18 851 25.13 17.2 63 64 10.4 50.8
23:50 1022 30.18 851 25.13 17.2 63 63 10.3 50.5
23:55 1022 30.18 851 25.13 17.2 63 62 10 49.9
24:00 1022 30.18 851 25.13 17.5 63.5 60 9.7 49.4